sensor_id;sensor_type;location;lat;lon;timestamp;pressure;altitude;pressure_sealevel;temperature;humidity
5952;BME280;3001;42.622;23.194;2023-02-18T00:01:20;92011.53;;;5.24;72.55
5952;BME280;3001;42.622;23.194;2023-02-18T00:03:47;92017.88;;;5.07;72.09
5952;BME280;3001;42.622;23.194;2023-02-18T00:06:16;92011.22;;;5.11;71.09
5952;BME280;3001;42.622;23.194;2023-02-18T00:08:44;92014.84;;;5.15;70.92
5952;BME280;3001;42.622;23.194;2023-02-18T00:11:12;92000.91;;;5.11;72.77
5952;BME280;3001;42.622;23.194;2023-02-18T00:13:39;92002.06;;;5.40;71.90
5952;BME280;3001;42.622;23.194;2023-02-18T00:16:07;92004.81;;;5.18;71.77
5952;BME280;3001;42.622;23.194;2023-02-18T00:18:35;91992.69;;;5.14;72.01
5952;BME280;3001;42.622;23.194;2023-02-18T00:21:04;91989.31;;;5.08;72.25
5952;BME280;3001;42.622;23.194;2023-02-18T00:23:31;91992.16;;;5.07;71.78
5952;BME280;3001;42.622;23.194;2023-02-18T00:25:59;91992.91;;;5.07;71.07
5952;BME280;3001;42.622;23.194;2023-02-18T00:28:27;91978.75;;;5.05;72.11
5952;BME280;3001;42.622;23.194;2023-02-18T00:30:54;91983.13;;;5.09;71.98
5952;BME280;3001;42.622;23.194;2023-02-18T00:33:21;91972.34;;;5.12;73.57
5952;BME280;3001;42.622;23.194;2023-02-18T00:35:48;91968.22;;;5.11;73.17
5952;BME280;3001;42.622;23.194;2023-02-18T00:38:15;91966.84;;;4.99;74.01
5952;BME280;3001;42.622;23.194;2023-02-18T00:40:42;91955.78;;;4.94;73.44
5952;BME280;3001;42.622;23.194;2023-02-18T00:43:09;91944.16;;;4.86;74.68
5952;BME280;3001;42.622;23.194;2023-02-18T00:45:37;91953.94;;;4.84;75.54
5952;BME280;3001;42.622;23.194;2023-02-18T00:48:04;91946.97;;;4.90;73.18
5952;BME280;3001;42.622;23.194;2023-02-18T00:50:30;91950.63;;;4.94;74.86
5952;BME280;3001;42.622;23.194;2023-02-18T00:52:57;91961.97;;;4.98;71.81
5952;BME280;3001;42.622;23.194;2023-02-18T00:55:24;91957.38;;;5.04;72.64
5952;BME280;3001;42.622;23.194;2023-02-18T00:57:50;91953.81;;;5.10;72.88
5952;BME280;3001;42.622;23.194;2023-02-18T01:00:17;91946.84;;;5.11;72.58
5952;BME280;3001;42.622;23.194;2023-02-18T01:02:46;91950.47;;;5.15;70.16
5952;BME280;3001;42.622;23.194;2023-02-18T01:05:12;91938.88;;;5.12;72.43
5952;BME280;3001;42.622;23.194;2023-02-18T01:07:39;91944.56;;;5.14;71.98
5952;BME280;3001;42.622;23.194;2023-02-18T01:10:06;91945.56;;;5.13;72.26
5952;BME280;3001;42.622;23.194;2023-02-18T01:12:33;91941.19;;;5.14;71.39
5952;BME280;3001;42.622;23.194;2023-02-18T01:15:00;91944.78;;;5.13;72.45
5952;BME280;3001;42.622;23.194;2023-02-18T01:17:26;91952.00;;;5.11;71.29
5952;BME280;3001;42.622;23.194;2023-02-18T01:19:54;91942.72;;;5.15;72.20
5952;BME280;3001;42.622;23.194;2023-02-18T01:22:21;91943.75;;;5.14;72.13
5952;BME280;3001;42.622;23.194;2023-02-18T01:24:48;91938.34;;;5.10;70.94
5952;BME280;3001;42.622;23.194;2023-02-18T01:27:15;91941.69;;;5.06;73.43
5952;BME280;3001;42.622;23.194;2023-02-18T01:29:42;91937.56;;;5.05;75.10
5952;BME280;3001;42.622;23.194;2023-02-18T01:32:08;91936.25;;;5.07;73.81
5952;BME280;3001;42.622;23.194;2023-02-18T01:34:35;91939.59;;;5.03;74.10
5952;BME280;3001;42.622;23.194;2023-02-18T01:37:03;91945.22;;;4.95;75.46
5952;BME280;3001;42.622;23.194;2023-02-18T01:39:30;91947.06;;;5.00;74.88
5952;BME280;3001;42.622;23.194;2023-02-18T01:41:57;91944.19;;;4.96;75.08
5952;BME280;3001;42.622;23.194;2023-02-18T01:44:25;91938.31;;;5.05;74.14
5952;BME280;3001;42.622;23.194;2023-02-18T01:46:52;91944.50;;;5.04;73.10
5952;BME280;3001;42.622;23.194;2023-02-18T01:49:24;91946.03;;;5.01;73.79
5952;BME280;3001;42.622;23.194;2023-02-18T01:51:53;91950.63;;;4.94;75.88
5952;BME280;3001;42.622;23.194;2023-02-18T01:54:26;91953.44;;;4.92;73.19
5952;BME280;3001;42.622;23.194;2023-02-18T01:56:57;91953.22;;;4.94;72.11
5952;BME280;3001;42.622;23.194;2023-02-18T01:59:28;91959.41;;;5.03;70.76
5952;BME280;3001;42.622;23.194;2023-02-18T02:01:57;91960.75;;;5.15;67.35
5952;BME280;3001;42.622;23.194;2023-02-18T02:04:24;91959.78;;;5.26;72.22
5952;BME280;3001;42.622;23.194;2023-02-18T02:06:51;91966.50;;;5.27;73.32
5952;BME280;3001;42.622;23.194;2023-02-18T02:09:19;91969.03;;;5.22;71.97
5952;BME280;3001;42.622;23.194;2023-02-18T02:12:22;91953.59;;;5.22;74.28
5952;BME280;3001;42.622;23.194;2023-02-18T02:15:14;91961.03;;;5.13;74.37
5952;BME280;3001;42.622;23.194;2023-02-18T02:17:52;91967.72;;;5.14;71.09
5952;BME280;3001;42.622;23.194;2023-02-18T02:20:44;91963.63;;;5.18;71.06
5952;BME280;3001;42.622;23.194;2023-02-18T02:23:38;91960.03;;;5.24;68.00
5952;BME280;3001;42.622;23.194;2023-02-18T02:35:23;91951.19;;;5.82;70.42
5952;BME280;3001;42.622;23.194;2023-02-18T02:37:58;91947.56;;;5.73;71.20
5952;BME280;3001;42.622;23.194;2023-02-18T02:40:30;91948.81;;;5.70;70.22
5952;BME280;3001;42.622;23.194;2023-02-18T02:43:05;91943.13;;;5.53;71.92
5952;BME280;3001;42.622;23.194;2023-02-18T02:45:44;91941.31;;;5.49;70.86
5952;BME280;3001;42.622;23.194;2023-02-18T02:48:21;91945.44;;;5.50;69.62
5952;BME280;3001;42.622;23.194;2023-02-18T02:50:53;91941.31;;;5.44;69.33
5952;BME280;3001;42.622;23.194;2023-02-18T02:53:23;91927.63;;;5.33;69.19
5952;BME280;3001;42.622;23.194;2023-02-18T02:55:51;91936.91;;;5.34;71.12
5952;BME280;3001;42.622;23.194;2023-02-18T02:58:19;91930.69;;;5.30;70.48
5952;BME280;3001;42.622;23.194;2023-02-18T03:00:57;91933.25;;;5.30;71.54
5952;BME280;3001;42.622;23.194;2023-02-18T03:03:52;91938.44;;;5.35;70.67
5952;BME280;3001;42.622;23.194;2023-02-18T03:06:40;91935.88;;;5.35;69.64
5952;BME280;3001;42.622;23.194;2023-02-18T03:09:16;91940.53;;;5.43;70.57
5952;BME280;3001;42.622;23.194;2023-02-18T03:11:52;91938.72;;;5.44;69.44
5952;BME280;3001;42.622;23.194;2023-02-18T03:14:27;91938.47;;;5.45;71.63
5952;BME280;3001;42.622;23.194;2023-02-18T03:16:58;91941.28;;;5.39;71.80
5952;BME280;3001;42.622;23.194;2023-02-18T03:19:31;91940.50;;;5.38;70.67
5952;BME280;3001;42.622;23.194;2023-02-18T03:22:05;91950.00;;;5.33;71.23
5952;BME280;3001;42.622;23.194;2023-02-18T03:24:35;91953.34;;;5.28;72.42
5952;BME280;3001;42.622;23.194;2023-02-18T03:27:06;91950.75;;;5.18;72.23
5952;BME280;3001;42.622;23.194;2023-02-18T03:29:35;91958.97;;;5.15;69.57
5952;BME280;3001;42.622;23.194;2023-02-18T03:32:05;91965.16;;;5.19;70.40
5952;BME280;3001;42.622;23.194;2023-02-18T03:34:37;91954.31;;;5.12;71.97
5952;BME280;3001;42.622;23.194;2023-02-18T03:37:07;91953.53;;;5.12;72.25
5952;BME280;3001;42.622;23.194;2023-02-18T03:39:36;91961.78;;;5.09;71.33
5952;BME280;3001;42.622;23.194;2023-02-18T03:42:06;91970.31;;;5.19;71.45
5952;BME280;3001;42.622;23.194;2023-02-18T03:44:33;91975.16;;;5.11;70.99
5952;BME280;3001;42.622;23.194;2023-02-18T03:47:00;91969.22;;;5.05;70.72
5952;BME280;3001;42.622;23.194;2023-02-18T03:49:27;91970.25;;;5.09;71.78
5952;BME280;3001;42.622;23.194;2023-02-18T03:51:53;91973.84;;;5.08;70.11
5952;BME280;3001;42.622;23.194;2023-02-18T03:54:21;91979.78;;;5.04;70.74
5952;BME280;3001;42.622;23.194;2023-02-18T03:56:48;91992.97;;;5.17;70.22
5952;BME280;3001;42.622;23.194;2023-02-18T03:59:15;91993.50;;;5.19;68.96
5952;BME280;3001;42.622;23.194;2023-02-18T04:01:41;91999.38;;;5.15;70.22
5952;BME280;3001;42.622;23.194;2023-02-18T04:04:08;91985.69;;;5.09;70.07
5952;BME280;3001;42.622;23.194;2023-02-18T04:06:35;91987.50;;;5.04;68.77
5952;BME280;3001;42.622;23.194;2023-02-18T04:09:02;91979.00;;;5.08;69.14
5952;BME280;3001;42.622;23.194;2023-02-18T04:11:34;91977.75;;;5.16;70.02
5952;BME280;3001;42.622;23.194;2023-02-18T04:14:01;91975.25;;;5.31;66.31
5952;BME280;3001;42.622;23.194;2023-02-18T04:16:28;91975.03;;;5.42;64.82
5952;BME280;3001;42.622;23.194;2023-02-18T04:18:54;91979.22;;;5.53;63.79
5952;BME280;3001;42.622;23.194;2023-02-18T04:21:21;91980.25;;;5.57;65.23
5952;BME280;3001;42.622;23.194;2023-02-18T04:23:49;91971.78;;;5.67;65.77
5952;BME280;3001;42.622;23.194;2023-02-18T04:26:16;91985.44;;;5.72;64.13
5952;BME280;3001;42.622;23.194;2023-02-18T04:28:44;91985.19;;;5.69;64.63
5952;BME280;3001;42.622;23.194;2023-02-18T04:31:10;91971.25;;;5.70;66.99
5952;BME280;3001;42.622;23.194;2023-02-18T04:33:37;91968.69;;;5.65;65.76
5952;BME280;3001;42.622;23.194;2023-02-18T04:36:04;91967.13;;;5.64;66.79
5952;BME280;3001;42.622;23.194;2023-02-18T04:38:31;91973.53;;;5.51;67.78
5952;BME280;3001;42.622;23.194;2023-02-18T04:40:58;91971.94;;;5.45;65.18
5952;BME280;3001;42.622;23.194;2023-02-18T04:43:24;91970.09;;;5.36;64.83
5952;BME280;3001;42.622;23.194;2023-02-18T04:45:52;91975.00;;;5.32;65.38
5952;BME280;3001;42.622;23.194;2023-02-18T04:48:19;91982.16;;;5.20;64.59
5952;BME280;3001;42.622;23.194;2023-02-18T04:50:46;91969.78;;;5.12;65.02
5952;BME280;3001;42.622;23.194;2023-02-18T04:53:13;91973.56;;;5.00;67.39
5952;BME280;3001;42.622;23.194;2023-02-18T04:55:40;91976.09;;;4.90;69.06
5952;BME280;3001;42.622;23.194;2023-02-18T04:58:06;91978.84;;;4.79;69.29
5952;BME280;3001;42.622;23.194;2023-02-18T05:00:34;91971.06;;;4.69;70.64
5952;BME280;3001;42.622;23.194;2023-02-18T05:03:02;91960.19;;;4.57;70.46
5952;BME280;3001;42.622;23.194;2023-02-18T05:05:29;91961.47;;;4.59;72.07
5952;BME280;3001;42.622;23.194;2023-02-18T05:07:55;91968.66;;;4.52;70.36
5952;BME280;3001;42.622;23.194;2023-02-18T05:10:22;91969.38;;;4.48;72.81
5952;BME280;3001;42.622;23.194;2023-02-18T05:12:49;91968.63;;;4.47;72.67
5952;BME280;3001;42.622;23.194;2023-02-18T05:15:15;91969.69;;;4.56;74.75
5952;BME280;3001;42.622;23.194;2023-02-18T05:17:42;91967.56;;;4.43;71.81
5952;BME280;3001;42.622;23.194;2023-02-18T05:20:11;91969.16;;;4.54;73.61
5952;BME280;3001;42.622;23.194;2023-02-18T05:22:38;91969.69;;;4.56;71.77
5952;BME280;3001;42.622;23.194;2023-02-18T05:25:05;91964.06;;;4.59;71.86
5952;BME280;3001;42.622;23.194;2023-02-18T05:27:32;91968.44;;;4.59;72.66
5952;BME280;3001;42.622;23.194;2023-02-18T05:29:58;91972.31;;;4.61;72.34
5952;BME280;3001;42.622;23.194;2023-02-18T05:32:25;91973.41;;;4.70;74.26
5952;BME280;3001;42.622;23.194;2023-02-18T05:34:52;91960.75;;;4.64;76.83
5952;BME280;3001;42.622;23.194;2023-02-18T05:37:20;91958.31;;;4.89;73.88
5952;BME280;3001;42.622;23.194;2023-02-18T05:39:47;91957.03;;;4.91;74.37
5952;BME280;3001;42.622;23.194;2023-02-18T05:42:13;91949.84;;;4.98;75.24
5952;BME280;3001;42.622;23.194;2023-02-18T05:44:40;91954.53;;;5.01;71.52
5952;BME280;3001;42.622;23.194;2023-02-18T05:47:09;91952.53;;;5.18;70.66
5952;BME280;3001;42.622;23.194;2023-02-18T05:49:37;91958.47;;;5.23;69.01
5952;BME280;3001;42.622;23.194;2023-02-18T05:52:04;91964.19;;;5.35;68.35
5952;BME280;3001;42.622;23.194;2023-02-18T05:54:32;91960.03;;;5.24;71.16
5952;BME280;3001;42.622;23.194;2023-02-18T05:56:59;91967.81;;;5.34;71.21
5952;BME280;3001;42.622;23.194;2023-02-18T05:59:26;91969.88;;;5.42;70.51
5952;BME280;3001;42.622;23.194;2023-02-18T06:01:53;91978.91;;;5.45;71.49
5952;BME280;3001;42.622;23.194;2023-02-18T06:04:20;91979.97;;;5.59;69.66
5952;BME280;3001;42.622;23.194;2023-02-18T06:06:47;91993.13;;;5.52;70.29
5952;BME280;3001;42.622;23.194;2023-02-18T06:09:13;91997.25;;;5.53;68.13
5952;BME280;3001;42.622;23.194;2023-02-18T06:11:42;91997.28;;;5.68;69.44
5952;BME280;3001;42.622;23.194;2023-02-18T06:14:08;91999.09;;;5.73;70.42
5952;BME280;3001;42.622;23.194;2023-02-18T06:16:35;91988.00;;;5.67;70.54
5952;BME280;3001;42.622;23.194;2023-02-18T06:19:02;91987.47;;;5.70;72.08
5952;BME280;3001;42.622;23.194;2023-02-18T06:21:29;91983.91;;;5.76;71.56
5952;BME280;3001;42.622;23.194;2023-02-18T06:23:56;91988.53;;;5.74;69.41
5952;BME280;3001;42.622;23.194;2023-02-18T06:26:23;92001.25;;;5.91;62.13
5952;BME280;3001;42.622;23.194;2023-02-18T06:28:51;92002.56;;;5.98;61.21
5952;BME280;3001;42.622;23.194;2023-02-18T06:31:18;91990.97;;;6.21;62.77
5952;BME280;3001;42.622;23.194;2023-02-18T06:33:44;91986.59;;;6.31;63.31
5952;BME280;3001;42.622;23.194;2023-02-18T06:36:12;91990.97;;;6.36;63.74
5952;BME280;3001;42.622;23.194;2023-02-18T06:38:40;91990.19;;;6.50;64.03
5952;BME280;3001;42.622;23.194;2023-02-18T06:41:07;91982.47;;;6.40;60.46
5952;BME280;3001;42.622;23.194;2023-02-18T06:43:34;91988.41;;;6.36;61.41
5952;BME280;3001;42.622;23.194;2023-02-18T06:46:03;91995.88;;;6.52;60.50
5952;BME280;3001;42.622;23.194;2023-02-18T06:48:30;92003.63;;;6.57;61.07
5952;BME280;3001;42.622;23.194;2023-02-18T06:50:57;91993.56;;;6.71;61.58
5952;BME280;3001;42.622;23.194;2023-02-18T06:53:23;91995.84;;;6.92;60.05
5952;BME280;3001;42.622;23.194;2023-02-18T06:55:50;92005.91;;;7.03;59.00
5952;BME280;3001;42.622;23.194;2023-02-18T06:58:17;91999.44;;;7.06;59.96
5952;BME280;3001;42.622;23.194;2023-02-18T07:00:43;91998.66;;;7.00;60.92
5952;BME280;3001;42.622;23.194;2023-02-18T07:03:12;92011.31;;;7.07;60.62
5952;BME280;3001;42.622;23.194;2023-02-18T07:05:39;92005.88;;;7.18;60.05
5952;BME280;3001;42.622;23.194;2023-02-18T07:08:06;91991.13;;;7.29;61.26
5952;BME280;3001;42.622;23.194;2023-02-18T07:10:33;92011.50;;;7.40;59.91
5952;BME280;3001;42.622;23.194;2023-02-18T07:13:00;92008.22;;;7.15;61.43
5952;BME280;3001;42.622;23.194;2023-02-18T07:15:27;92010.00;;;7.14;62.71
5952;BME280;3001;42.622;23.194;2023-02-18T07:17:54;92004.84;;;7.04;62.84
5952;BME280;3001;42.622;23.194;2023-02-18T07:20:23;91990.91;;;7.15;63.34
5952;BME280;3001;42.622;23.194;2023-02-18T07:22:50;91993.19;;;7.37;62.95
5952;BME280;3001;42.622;23.194;2023-02-18T07:25:17;91992.38;;;7.36;62.94
5952;BME280;3001;42.622;23.194;2023-02-18T07:27:43;91980.50;;;7.35;60.31
5952;BME280;3001;42.622;23.194;2023-02-18T07:30:11;91976.34;;;7.39;60.37
5952;BME280;3001;42.622;23.194;2023-02-18T07:32:38;91980.00;;;7.33;61.05
5952;BME280;3001;42.622;23.194;2023-02-18T07:35:06;91972.00;;;7.30;61.69
5952;BME280;3001;42.622;23.194;2023-02-18T07:37:34;91982.06;;;7.31;62.81
5952;BME280;3001;42.622;23.194;2023-02-18T07:40:01;91989.00;;;7.46;62.02
5952;BME280;3001;42.622;23.194;2023-02-18T07:42:27;91993.63;;;7.49;59.19
5952;BME280;3001;42.622;23.194;2023-02-18T07:44:54;91987.16;;;7.51;58.25
5952;BME280;3001;42.622;23.194;2023-02-18T07:47:21;91996.97;;;7.54;57.10
5952;BME280;3001;42.622;23.194;2023-02-18T07:49:47;91996.44;;;7.57;57.22
5952;BME280;3001;42.622;23.194;2023-02-18T07:52:14;92000.59;;;7.53;57.30
5952;BME280;3001;42.622;23.194;2023-02-18T07:54:42;91996.72;;;7.51;57.25
5952;BME280;3001;42.622;23.194;2023-02-18T07:57:09;91998.50;;;7.60;56.68
5952;BME280;3001;42.622;23.194;2023-02-18T07:59:36;92009.84;;;7.64;55.86
5952;BME280;3001;42.622;23.194;2023-02-18T08:02:03;92002.03;;;7.79;56.31
5952;BME280;3001;42.622;23.194;2023-02-18T08:04:31;91996.63;;;7.81;56.86
5952;BME280;3001;42.622;23.194;2023-02-18T08:06:58;91989.78;;;7.95;56.52
5952;BME280;3001;42.622;23.194;2023-02-18T08:09:25;91981.25;;;7.99;56.56
5952;BME280;3001;42.622;23.194;2023-02-18T08:11:53;91987.56;;;8.27;55.24
5952;BME280;3001;42.622;23.194;2023-02-18T08:14:20;91999.09;;;8.44;53.96
5952;BME280;3001;42.622;23.194;2023-02-18T08:16:46;92003.47;;;8.49;54.36
5952;BME280;3001;42.622;23.194;2023-02-18T08:19:13;91996.69;;;8.52;53.23
5952;BME280;3001;42.622;23.194;2023-02-18T08:21:40;91999.53;;;8.56;54.14
5952;BME280;3001;42.622;23.194;2023-02-18T08:24:06;92012.44;;;8.61;54.72
5952;BME280;3001;42.622;23.194;2023-02-18T08:26:33;92008.25;;;8.70;54.43
5952;BME280;3001;42.622;23.194;2023-02-18T08:29:01;92003.59;;;8.95;53.52
5952;BME280;3001;42.622;23.194;2023-02-18T08:31:29;92002.78;;;9.00;53.40
5952;BME280;3001;42.622;23.194;2023-02-18T08:33:57;91996.25;;;9.07;54.27
5952;BME280;3001;42.622;23.194;2023-02-18T08:36:25;91995.94;;;9.14;56.61
5952;BME280;3001;42.622;23.194;2023-02-18T08:38:52;92002.88;;;9.18;56.41
5952;BME280;3001;42.622;23.194;2023-02-18T08:41:19;91997.59;;;9.28;54.08
5952;BME280;3001;42.622;23.194;2023-02-18T08:43:46;91992.91;;;9.30;54.59
5952;BME280;3001;42.622;23.194;2023-02-18T08:46:15;91989.69;;;9.38;50.51
5952;BME280;3001;42.622;23.194;2023-02-18T08:48:42;91991.09;;;9.54;49.98
5952;BME280;3001;42.622;23.194;2023-02-18T08:51:11;91984.03;;;9.60;52.71
5952;BME280;3001;42.622;23.194;2023-02-18T08:53:38;91990.03;;;9.55;52.31
5952;BME280;3001;42.622;23.194;2023-02-18T08:56:06;91993.56;;;9.64;52.36
5952;BME280;3001;42.622;23.194;2023-02-18T08:58:33;91995.94;;;9.84;53.17
5952;BME280;3001;42.622;23.194;2023-02-18T09:01:02;91986.25;;;9.90;51.91
5952;BME280;3001;42.622;23.194;2023-02-18T09:03:31;91999.84;;;10.05;49.89
5952;BME280;3001;42.622;23.194;2023-02-18T09:05:58;91998.88;;;10.01;49.14
5952;BME280;3001;42.622;23.194;2023-02-18T09:08:25;91988.78;;;9.95;48.97
5952;BME280;3001;42.622;23.194;2023-02-18T09:10:54;91996.13;;;10.11;49.20
5952;BME280;3001;42.622;23.194;2023-02-18T09:13:21;91994.38;;;10.07;50.97
5952;BME280;3001;42.622;23.194;2023-02-18T09:15:55;91998.72;;;10.11;51.39
5952;BME280;3001;42.622;23.194;2023-02-18T09:18:22;91998.72;;;10.29;51.76
5952;BME280;3001;42.622;23.194;2023-02-18T09:20:50;91989.53;;;10.37;55.23
5952;BME280;3001;42.622;23.194;2023-02-18T09:23:17;91989.66;;;10.45;53.64
5952;BME280;3001;42.622;23.194;2023-02-18T09:25:45;91983.34;;;10.51;53.37
5952;BME280;3001;42.622;23.194;2023-02-18T09:28:12;91989.53;;;10.55;51.49
5952;BME280;3001;42.622;23.194;2023-02-18T09:30:38;91985.25;;;10.78;51.11
5952;BME280;3001;42.622;23.194;2023-02-18T09:33:05;91989.66;;;10.96;50.61
5952;BME280;3001;42.622;23.194;2023-02-18T09:35:32;91975.16;;;11.08;45.94
5952;BME280;3001;42.622;23.194;2023-02-18T09:38:00;91985.09;;;11.33;45.22
5952;BME280;3001;42.622;23.194;2023-02-18T09:40:31;91981.09;;;11.54;45.03
5952;BME280;3001;42.622;23.194;2023-02-18T09:42:59;91977.06;;;11.62;45.76
5952;BME280;3001;42.622;23.194;2023-02-18T09:45:26;91977.72;;;11.94;44.52
5952;BME280;3001;42.622;23.194;2023-02-18T09:47:53;91974.06;;;12.08;43.13
5952;BME280;3001;42.622;23.194;2023-02-18T09:50:22;91980.38;;;12.29;41.93
5952;BME280;3001;42.622;23.194;2023-02-18T09:52:51;91975.78;;;12.48;41.24
5952;BME280;3001;42.622;23.194;2023-02-18T09:55:21;91976.97;;;12.64;40.45
5952;BME280;3001;42.622;23.194;2023-02-18T09:57:50;91964.84;;;12.82;37.80
5952;BME280;3001;42.622;23.194;2023-02-18T10:00:20;91973.16;;;13.06;37.18
5952;BME280;3001;42.622;23.194;2023-02-18T10:02:54;91970.81;;;13.04;36.11
5952;BME280;3001;42.622;23.194;2023-02-18T10:05:23;91963.41;;;13.20;36.79
5952;BME280;3001;42.622;23.194;2023-02-18T10:07:53;91960.44;;;13.43;35.53
5952;BME280;3001;42.622;23.194;2023-02-18T10:10:33;91960.28;;;13.79;35.59
5952;BME280;3001;42.622;23.194;2023-02-18T10:13:02;91950.47;;;13.92;34.80
5952;BME280;3001;42.622;23.194;2023-02-18T10:15:31;91941.91;;;14.09;35.93
5952;BME280;3001;42.622;23.194;2023-02-18T10:17:58;91945.34;;;14.18;33.38
5952;BME280;3001;42.622;23.194;2023-02-18T10:20:27;91946.44;;;14.34;32.71
5952;BME280;3001;42.622;23.194;2023-02-18T10:22:58;91936.28;;;14.32;33.03
5952;BME280;3001;42.622;23.194;2023-02-18T10:25:28;91936.44;;;14.44;32.26
5952;BME280;3001;42.622;23.194;2023-02-18T10:27:57;91948.44;;;14.54;33.10
5952;BME280;3001;42.622;23.194;2023-02-18T10:30:30;91950.00;;;14.55;32.13
5952;BME280;3001;42.622;23.194;2023-02-18T10:33:00;91957.66;;;14.77;32.12
5952;BME280;3001;42.622;23.194;2023-02-18T10:35:37;91957.50;;;14.73;32.12
5952;BME280;3001;42.622;23.194;2023-02-18T10:38:11;91961.03;;;14.86;31.73
5952;BME280;3001;42.622;23.194;2023-02-18T10:40:50;91950.25;;;15.13;32.48
5952;BME280;3001;42.622;23.194;2023-02-18T10:43:24;91943.63;;;15.07;30.38
5952;BME280;3001;42.622;23.194;2023-02-18T10:45:57;91946.84;;;15.04;31.65
5952;BME280;3001;42.622;23.194;2023-02-18T10:48:43;91952.38;;;15.11;32.16
5952;BME280;3001;42.622;23.194;2023-02-18T10:51:15;91924.03;;;15.21;32.21
5952;BME280;3001;42.622;23.194;2023-02-18T10:53:45;91930.97;;;15.34;31.44
5952;BME280;3001;42.622;23.194;2023-02-18T10:56:36;91932.06;;;15.62;31.42
5952;BME280;3001;42.622;23.194;2023-02-18T10:59:12;91937.63;;;15.69;31.59
5952;BME280;3001;42.622;23.194;2023-02-18T11:01:39;91923.59;;;15.73;31.40
5952;BME280;3001;42.622;23.194;2023-02-18T11:04:12;91927.72;;;16.03;31.50
5952;BME280;3001;42.622;23.194;2023-02-18T11:06:41;91933.00;;;15.95;30.97
5952;BME280;3001;42.622;23.194;2023-02-18T11:09:26;91931.63;;;15.97;30.54
5952;BME280;3001;42.622;23.194;2023-02-18T11:12:01;91925.94;;;16.16;31.99
5952;BME280;3001;42.622;23.194;2023-02-18T11:14:40;91922.41;;;16.41;30.94
5952;BME280;3001;42.622;23.194;2023-02-18T11:17:15;91917.31;;;16.44;30.55
5952;BME280;3001;42.622;23.194;2023-02-18T11:19:42;91919.91;;;16.24;29.02
5952;BME280;3001;42.622;23.194;2023-02-18T11:22:18;91923.28;;;16.24;30.23
5952;BME280;3001;42.622;23.194;2023-02-18T11:24:46;91906.31;;;16.22;31.26
5952;BME280;3001;42.622;23.194;2023-02-18T11:27:21;91917.84;;;16.29;31.25
5952;BME280;3001;42.622;23.194;2023-02-18T11:29:51;91913.47;;;16.42;30.38
5952;BME280;3001;42.622;23.194;2023-02-18T11:32:19;91911.69;;;16.54;31.50
5952;BME280;3001;42.622;23.194;2023-02-18T11:34:48;91912.38;;;16.63;30.72
5952;BME280;3001;42.622;23.194;2023-02-18T11:37:18;91906.44;;;16.54;29.17
5952;BME280;3001;42.622;23.194;2023-02-18T11:39:48;91881.78;;;16.67;29.28
5952;BME280;3001;42.622;23.194;2023-02-18T11:42:18;91882.22;;;16.69;30.40
5952;BME280;3001;42.622;23.194;2023-02-18T11:44:50;91863.94;;;16.93;31.15
5952;BME280;3001;42.622;23.194;2023-02-18T11:47:21;91868.56;;;16.96;30.44
5952;BME280;3001;42.622;23.194;2023-02-18T11:50:00;91863.53;;;17.15;31.88
5952;BME280;3001;42.622;23.194;2023-02-18T11:52:33;91872.19;;;17.16;29.77
5952;BME280;3001;42.622;23.194;2023-02-18T11:55:02;91859.09;;;17.28;32.08
5952;BME280;3001;42.622;23.194;2023-02-18T11:57:30;91854.59;;;17.28;30.96
5952;BME280;3001;42.622;23.194;2023-02-18T11:59:59;91849.56;;;17.23;30.06
5952;BME280;3001;42.622;23.194;2023-02-18T12:02:31;91861.09;;;17.42;32.29
5952;BME280;3001;42.622;23.194;2023-02-18T12:05:03;91856.84;;;17.38;29.35
5952;BME280;3001;42.622;23.194;2023-02-18T12:07:38;91850.38;;;17.36;29.35
5952;BME280;3001;42.622;23.194;2023-02-18T12:10:11;91837.03;;;17.41;30.46
5952;BME280;3001;42.622;23.194;2023-02-18T12:12:44;91842.25;;;17.29;29.59
5952;BME280;3001;42.622;23.194;2023-02-18T12:15:17;91833.19;;;17.50;29.98
5952;BME280;3001;42.622;23.194;2023-02-18T12:18:04;91839.13;;;17.47;30.05
5952;BME280;3001;42.622;23.194;2023-02-18T12:20:52;91828.28;;;17.60;30.05
5952;BME280;3001;42.622;23.194;2023-02-18T12:23:25;91843.94;;;17.69;30.93
5952;BME280;3001;42.622;23.194;2023-02-18T12:26:02;91829.25;;;17.68;28.63
5952;BME280;3001;42.622;23.194;2023-02-18T12:28:45;91833.31;;;17.89;29.58
5952;BME280;3001;42.622;23.194;2023-02-18T12:31:25;91837.97;;;17.96;29.66
5952;BME280;3001;42.622;23.194;2023-02-18T12:34:10;91837.03;;;17.76;28.63
5952;BME280;3001;42.622;23.194;2023-02-18T12:36:49;91831.13;;;17.67;29.24
5952;BME280;3001;42.622;23.194;2023-02-18T12:39:31;91824.91;;;17.60;29.70
5952;BME280;3001;42.622;23.194;2023-02-18T12:42:12;91819.28;;;17.61;29.96
5952;BME280;3001;42.622;23.194;2023-02-18T12:44:53;91811.31;;;17.34;29.57
5952;BME280;3001;42.622;23.194;2023-02-18T12:47:38;91799.69;;;17.35;31.09
5952;BME280;3001;42.622;23.194;2023-02-18T12:50:46;91800.34;;;17.32;31.49
5952;BME280;3001;42.622;23.194;2023-02-18T12:53:29;91786.75;;;17.30;31.76
5952;BME280;3001;42.622;23.194;2023-02-18T12:56:22;91785.44;;;17.12;30.77
5952;BME280;3001;42.622;23.194;2023-02-18T12:58:58;91789.91;;;17.00;31.59
5952;BME280;3001;42.622;23.194;2023-02-18T13:01:37;91792.53;;;17.00;31.94
5952;BME280;3001;42.622;23.194;2023-02-18T13:04:29;91786.84;;;16.98;32.00
5952;BME280;3001;42.622;23.194;2023-02-18T13:10:27;91786.63;;;17.03;32.27
5952;BME280;3001;42.622;23.194;2023-02-18T13:13:06;91793.22;;;17.21;32.67
5952;BME280;3001;42.622;23.194;2023-02-18T13:15:37;91795.84;;;17.33;32.34
5952;BME280;3001;42.622;23.194;2023-02-18T13:18:10;91792.38;;;17.41;32.69
5952;BME280;3001;42.622;23.194;2023-02-18T13:20:41;91785.56;;;17.16;32.48
5952;BME280;3001;42.622;23.194;2023-02-18T13:23:15;91796.50;;;17.06;33.30
5952;BME280;3001;42.622;23.194;2023-02-18T13:25:43;91799.75;;;17.03;33.01
5952;BME280;3001;42.622;23.194;2023-02-18T13:28:19;91795.59;;;16.90;32.84
5952;BME280;3001;42.622;23.194;2023-02-18T13:30:48;91804.16;;;16.54;32.54
5952;BME280;3001;42.622;23.194;2023-02-18T13:33:22;91798.22;;;16.45;32.82
5952;BME280;3001;42.622;23.194;2023-02-18T13:35:57;91797.53;;;16.36;34.32
5952;BME280;3001;42.622;23.194;2023-02-18T13:38:43;91800.63;;;16.30;33.61
5952;BME280;3001;42.622;23.194;2023-02-18T13:41:14;91789.56;;;16.24;34.33
5952;BME280;3001;42.622;23.194;2023-02-18T13:43:41;91793.41;;;16.27;34.84
5952;BME280;3001;42.622;23.194;2023-02-18T13:46:10;91788.69;;;16.20;35.62